createdAt,value
2019-01-05T00:02:29.323Z,134.90
2019-01-05T00:05:23.679Z,140.67
2019-01-05T00:08:17.757Z,127.93
2019-01-05T00:11:27.036Z,125.50
2019-01-05T00:14:37.258Z,141.27
2019-01-05T00:17:34.444Z,125.37
2019-01-05T00:20:48.323Z,124.53
2019-01-05T00:23:55.928Z,138.40
2019-01-05T00:26:51.095Z,145.07
2019-01-05T00:29:45.066Z,138.37
2019-01-05T00:32:39.111Z,138.30
2019-01-05T00:35:42.783Z,128.37
2019-01-05T00:38:45.602Z,118.23
2019-01-05T00:41:42.975Z,129.67
2019-01-05T00:44:29.140Z,114.40
2019-01-05T00:47:24.452Z,118.47
2019-01-05T00:50:11.415Z,129.50
2019-01-05T00:53:12.549Z,120.37
2019-01-05T00:56:12.007Z,111.97
2019-01-05T00:59:08.506Z,113.60
2019-01-05T01:02:01.149Z,113.83
2019-01-05T01:04:50.866Z,115.40
2019-01-05T01:07:58.880Z,122.00
2019-01-05T01:10:48.291Z,107.53
2019-01-05T01:13:38.509Z,114.10
2019-01-05T01:16:28.216Z,114.27
2019-01-05T01:19:28.243Z,111.03
2019-01-05T01:22:21.983Z,101.77
2019-01-05T01:25:40.736Z,102.33
2019-01-05T01:28:33.881Z,96.07
2019-01-05T01:31:23.147Z,99.97
2019-01-05T01:34:22.408Z,101.70
2019-01-05T01:37:32.396Z,92.17
2019-01-05T01:40:27.144Z,85.60
2019-01-05T01:43:17.062Z,80.10
2019-01-05T01:46:18.049Z,80.60
2019-01-05T01:49:10.829Z,80.17
2019-01-05T01:52:00.048Z,83.97
2019-01-05T01:55:03.037Z,74.53
2019-01-05T01:57:53.467Z,89.67
2019-01-05T02:01:07.615Z,81.73
2019-01-05T02:04:19.692Z,78.00
2019-01-05T02:07:25.791Z,73.93
2019-01-05T02:10:25.331Z,62.80
2019-01-05T02:13:44.237Z,60.47
2019-01-05T02:16:35.408Z,57.77
2019-01-05T02:19:44.535Z,59.13
2019-01-05T02:23:21.760Z,52.40
2019-01-05T02:26:36.384Z,52.00
2019-01-05T02:30:24.341Z,52.27
2019-01-05T02:33:48.400Z,46.37
2019-01-05T02:37:19.624Z,55.37
2019-01-05T02:40:59.506Z,52.80
2019-01-05T02:44:18.634Z,50.93
2019-01-05T02:47:52.252Z,48.60
2019-01-05T02:51:37.193Z,56.50
2019-01-05T02:55:35.466Z,39.27
2019-01-05T02:59:08.999Z,49.13
2019-01-05T03:02:38.879Z,42.10
2019-01-05T03:06:06.776Z,44.63
2019-01-05T03:09:40.869Z,44.03
2019-01-05T03:13:22.363Z,38.77
2019-01-05T03:16:46.081Z,41.20
2019-01-05T03:20:09.660Z,38.40
2019-01-05T03:23:50.538Z,46.27
2019-01-05T03:27:11.248Z,40.13
2019-01-05T03:31:02.554Z,42.50
2019-01-05T03:34:30.662Z,43.33
2019-01-05T03:38:09.835Z,39.70
2019-01-05T03:41:18.608Z,40.57
2019-01-05T03:44:55.678Z,36.43
2019-01-05T03:48:29.740Z,34.40
2019-01-05T03:52:22.333Z,35.73
2019-01-05T03:56:10.930Z,38.07
2019-01-05T03:59:33.605Z,39.27
2019-01-05T04:03:27.836Z,35.97
2019-01-05T04:07:20.051Z,45.00
2019-01-05T04:10:55.419Z,43.77
2019-01-05T04:14:27.486Z,44.63
2019-01-05T04:18:05.935Z,46.33
2019-01-05T04:21:28.324Z,45.70
2019-01-05T04:24:54.075Z,52.40
2019-01-05T04:28:12.004Z,49.03
2019-01-05T04:31:43.872Z,43.20
2019-01-05T04:35:26.637Z,42.57
2019-01-05T04:38:57.536Z,52.50
2019-01-05T04:42:28.823Z,56.67
2019-01-05T04:46:06.764Z,53.13
2019-01-05T04:49:47.736Z,54.03
2019-01-05T04:53:22.515Z,54.00
2019-01-05T04:56:40.325Z,57.73
2019-01-05T05:00:22.798Z,44.23
2019-01-05T05:04:12.271Z,44.03
2019-01-05T05:07:44.495Z,41.30
2019-01-05T05:11:15.332Z,42.40
2019-01-05T05:15:03.163Z,45.27
2019-01-05T05:18:44.932Z,38.37
2019-01-05T05:22:12.785Z,35.83
2019-01-05T05:26:03.639Z,34.20
2019-01-05T05:29:36.033Z,34.10
2019-01-05T05:33:12.023Z,35.63
2019-01-05T05:37:02.497Z,38.03
2019-01-05T05:40:53.146Z,39.00
2019-01-05T05:44:27.601Z,35.73
2019-01-05T05:48:04.341Z,33.97
2019-01-05T05:51:30.985Z,31.37
2019-01-05T05:55:21.875Z,35.27
2019-01-05T05:58:51.253Z,35.00
2019-01-05T06:02:14.868Z,32.07
2019-01-05T06:05:51.800Z,33.40
2019-01-05T06:09:18.232Z,32.57
2019-01-05T06:12:45.003Z,33.87
2019-01-05T06:16:11.032Z,28.27
2019-01-05T06:19:45.333Z,28.77
2019-01-05T06:23:19.154Z,24.80
2019-01-05T06:26:46.106Z,26.57
2019-01-05T06:30:22.869Z,30.80
2019-01-05T06:34:19.679Z,22.97
2019-01-05T06:37:58.272Z,21.23
2019-01-05T06:41:26.680Z,19.10
2019-01-05T06:45:07.456Z,20.27
2019-01-05T06:48:31.548Z,17.63
2019-01-05T06:52:10.096Z,21.27
2019-01-05T06:55:54.765Z,17.17
2019-01-05T06:59:17.822Z,16.80
2019-01-05T07:06:54.372Z,15.57
2019-01-05T07:10:34.380Z,13.37
2019-01-05T07:14:10.771Z,13.60
2019-01-05T07:17:41.240Z,13.63
2019-01-05T07:21:34.299Z,14.23
2019-01-05T07:24:58.588Z,14.37
2019-01-05T07:28:41.842Z,13.27
2019-01-05T07:32:04.856Z,9.90
2019-01-05T07:35:42.174Z,9.30
2019-01-05T07:39:08.474Z,8.50
2019-01-05T07:42:40.670Z,8.10
2019-01-05T07:46:07.217Z,10.30
2019-01-05T07:49:49.941Z,5.70
2019-01-05T07:53:13.292Z,12.17
2019-01-05T07:56:34.028Z,9.03
2019-01-05T07:59:56.272Z,10.03
2019-01-05T08:03:28.698Z,8.03
2019-01-05T08:06:48.928Z,6.33
2019-01-05T08:10:21.633Z,12.37
2019-01-05T08:13:59.641Z,9.20
2019-01-05T08:17:30.516Z,12.00
2019-01-05T08:20:47.647Z,12.83
2019-01-05T08:24:20.123Z,13.53
2019-01-05T08:27:43.560Z,13.53
2019-01-05T08:31:00.161Z,16.50
2019-01-05T08:34:25.315Z,14.93
2019-01-05T08:38:17.724Z,14.70
2019-01-05T08:41:43.171Z,16.10
2019-01-05T08:45:18.167Z,14.27
2019-01-05T08:49:09.559Z,16.57
2019-01-05T08:52:40.681Z,16.37
2019-01-05T08:56:21.152Z,18.13
2019-01-05T09:00:06.903Z,20.03
2019-01-05T09:03:52.186Z,14.67
2019-01-05T09:07:29.052Z,14.43
2019-01-05T09:11:10.569Z,13.97
2019-01-05T09:14:41.096Z,13.77
2019-01-05T09:18:17.150Z,17.43
2019-01-05T09:22:04.242Z,11.60
2019-01-05T09:25:43.978Z,8.87
2019-01-05T09:29:28.808Z,13.50
2019-01-05T09:33:00.518Z,14.13
2019-01-05T09:36:35.425Z,11.03
2019-01-05T09:40:10.059Z,11.73
2019-01-05T09:43:54.131Z,10.53
2019-01-05T09:47:32.969Z,8.73
2019-01-05T09:51:07.394Z,9.93
2019-01-05T09:55:07.168Z,14.27
2019-01-05T09:58:42.143Z,13.43
2019-01-05T10:02:25.909Z,11.73
2019-01-05T10:06:06.786Z,10.07
2019-01-05T10:09:39.894Z,11.43
2019-01-05T10:13:26.906Z,11.03
2019-01-05T10:16:47.947Z,12.93
2019-01-05T10:20:20.330Z,12.27
2019-01-05T10:23:48.355Z,14.70
2019-01-05T10:26:59.504Z,15.97
2019-01-05T10:30:39.019Z,14.47
2019-01-05T10:34:05.308Z,14.87
2019-01-05T10:37:41.206Z,14.63
2019-01-05T10:41:35.999Z,12.37
2019-01-05T10:45:07.221Z,20.67
2019-01-05T10:48:31.028Z,14.50
2019-01-05T10:52:08.114Z,12.27
2019-01-05T10:55:47.443Z,12.23
2019-01-05T10:59:55.411Z,9.03
2019-01-05T11:03:45.831Z,14.27
2019-01-05T11:07:20.067Z,13.90
2019-01-05T11:10:47.527Z,14.67
2019-01-05T11:14:29.291Z,8.63
2019-01-05T11:17:45.037Z,13.77
2019-01-05T11:21:31.558Z,7.07
2019-01-05T11:24:53.468Z,11.33
2019-01-05T11:28:30.705Z,8.77
2019-01-05T11:31:51.742Z,13.00
2019-01-05T11:35:11.542Z,12.23
2019-01-05T11:38:37.956Z,10.53
2019-01-05T11:42:10.625Z,12.07
2019-01-05T11:45:34.043Z,13.63
2019-01-05T11:49:16.705Z,11.63
2019-01-05T11:52:38.577Z,9.37
2019-01-05T11:56:21.354Z,12.20
2019-01-05T11:59:51.271Z,10.50
2019-01-05T12:03:14.168Z,11.53
2019-01-05T12:06:59.218Z,16.50
2019-01-05T12:10:43.619Z,14.27
2019-01-05T12:14:10.017Z,16.30
2019-01-05T12:17:31.255Z,16.17
2019-01-05T12:20:53.652Z,13.13
2019-01-05T12:24:14.546Z,16.40
2019-01-05T12:27:35.620Z,8.77
2019-01-05T12:31:01.251Z,11.00
2019-01-05T12:34:27.647Z,11.10
2019-01-05T12:37:59.353Z,13.53
2019-01-05T12:41:42.174Z,12.73
2019-01-05T12:45:14.564Z,15.67
2019-01-05T12:49:00.252Z,14.50
2019-01-05T12:52:48.685Z,11.57
2019-01-05T12:56:06.574Z,9.23
2019-01-05T12:59:33.163Z,10.87
2019-01-05T13:02:55.741Z,11.37
2019-01-05T13:06:30.518Z,8.80
2019-01-05T13:09:51.098Z,11.60
2019-01-05T13:13:22.916Z,12.60
2019-01-05T13:16:56.551Z,15.27
2019-01-05T13:20:12.486Z,14.77
2019-01-05T13:24:11.315Z,15.10
2019-01-05T13:28:11.746Z,12.17
2019-01-05T13:31:36.613Z,9.87
2019-01-05T13:34:51.798Z,11.97
2019-01-05T13:38:13.460Z,10.20
2019-01-05T13:41:58.008Z,11.27
2019-01-05T13:45:24.739Z,16.40
2019-01-05T13:48:34.163Z,14.57
2019-01-05T13:52:06.821Z,11.33
2019-01-05T13:54:55.880Z,12.63
2019-01-05T13:57:47.399Z,9.37
2019-01-05T14:00:44.828Z,13.17
2019-01-05T14:03:40.646Z,7.30
2019-01-05T14:06:35.176Z,10.90
2019-01-05T14:09:29.153Z,12.93
2019-01-05T14:12:16.493Z,14.23
2019-01-05T14:15:03.284Z,14.27
2019-01-05T14:17:51.729Z,10.33
2019-01-05T14:20:37.189Z,13.53
2019-01-05T14:23:34.145Z,14.33
2019-01-05T14:26:29.328Z,12.07
2019-01-05T14:29:33.243Z,12.97
2019-01-05T14:32:19.925Z,9.57
2019-01-05T14:35:07.440Z,12.40
2019-01-05T14:37:51.192Z,8.20
2019-01-05T14:40:41.385Z,9.53
2019-01-05T14:43:50.219Z,9.13
2019-01-05T14:46:40.102Z,10.63
2019-01-05T14:49:34.309Z,8.03
2019-01-05T14:52:35.581Z,9.10
2019-01-05T14:55:35.151Z,9.10
2019-01-05T14:58:45.094Z,8.10
2019-01-05T15:01:32.006Z,8.23
2019-01-05T15:04:19.032Z,12.63
2019-01-05T15:07:06.291Z,8.93
2019-01-05T15:09:49.153Z,13.67
2019-01-05T15:12:45.355Z,12.03
2019-01-05T15:15:48.962Z,11.93
2019-01-05T15:18:35.602Z,11.53
2019-01-05T15:21:18.639Z,14.93
2019-01-05T15:24:13.071Z,16.37
2019-01-05T15:26:59.780Z,12.50
2019-01-05T15:29:44.999Z,13.43
2019-01-05T15:32:36.078Z,14.57
2019-01-05T15:35:23.085Z,6.30
2019-01-05T15:38:10.180Z,12.10
2019-01-05T15:41:07.655Z,12.40
2019-01-05T15:43:54.355Z,12.60
2019-01-05T15:46:42.538Z,9.43
2019-01-05T15:49:43.265Z,9.57
2019-01-05T15:52:31.705Z,10.23
2019-01-05T15:55:30.591Z,12.10
2019-01-05T15:58:24.726Z,11.27
2019-01-05T16:01:25.186Z,15.90
2019-01-05T16:04:16.351Z,10.70
2019-01-05T16:07:13.534Z,10.90
2019-01-05T16:10:17.092Z,15.77
2019-01-05T16:13:03.959Z,16.97
2019-01-05T16:16:04.185Z,19.77
2019-01-05T16:18:50.824Z,13.33
2019-01-05T16:21:39.164Z,16.90
2019-01-05T16:24:27.410Z,20.47
2019-01-05T16:27:14.086Z,13.10
2019-01-05T16:30:01.111Z,21.10
2019-01-05T16:32:48.130Z,15.70
2019-01-05T16:35:48.576Z,16.67
2019-01-05T16:38:35.525Z,20.97
2019-01-05T16:41:23.845Z,22.57
2019-01-05T16:44:27.326Z,19.53
2019-01-05T16:47:14.288Z,21.87
2019-01-05T16:50:01.038Z,24.57
2019-01-05T16:52:55.423Z,23.03
2019-01-05T16:55:46.885Z,18.60
2019-01-05T16:58:33.580Z,29.70
2019-01-05T17:01:28.085Z,25.17
2019-01-05T17:04:16.020Z,21.63
2019-01-05T17:07:13.425Z,19.07
2019-01-05T17:10:02.267Z,19.53
2019-01-05T17:12:46.881Z,18.67
2019-01-05T17:15:35.173Z,25.73
2019-01-05T17:18:22.124Z,24.73
2019-01-05T17:21:19.596Z,23.93
2019-01-05T17:24:06.462Z,20.20
2019-01-05T17:26:51.046Z,25.53
2019-01-05T17:29:37.875Z,21.80
2019-01-05T17:32:35.079Z,23.77
2019-01-05T17:35:21.823Z,21.83
2019-01-05T17:38:12.945Z,24.63
2019-01-05T17:41:07.453Z,23.53
2019-01-05T17:44:01.270Z,29.90
2019-01-05T17:46:41.814Z,25.93
2019-01-05T17:49:39.043Z,25.27
2019-01-05T17:52:25.739Z,24.33
2019-01-05T17:55:20.244Z,28.33
2019-01-05T17:58:07.064Z,27.60
2019-01-05T18:00:53.829Z,24.37
2019-01-05T18:03:42.236Z,23.33
2019-01-05T18:06:29.012Z,24.33
2019-01-05T18:09:17.320Z,27.60
2019-01-05T18:12:04.101Z,23.87
2019-01-05T18:15:01.358Z,21.13
2019-01-05T18:17:52.763Z,24.63
2019-01-05T18:20:43.827Z,23.83
2019-01-05T18:23:30.964Z,25.73
2019-01-05T18:26:17.624Z,22.73
2019-01-05T18:29:04.418Z,23.87
2019-01-05T18:31:51.452Z,19.00
2019-01-05T18:34:38.504Z,22.63
2019-01-05T18:37:29.528Z,24.07
2019-01-05T18:40:30.121Z,25.33
2019-01-05T18:43:21.596Z,22.80
2019-01-05T18:46:08.714Z,24.10
2019-01-05T18:48:57.065Z,20.37
2019-01-05T18:51:44.117Z,20.47
2019-01-05T18:54:31.155Z,23.00
2019-01-05T18:57:33.859Z,24.33
2019-01-05T19:00:22.222Z,27.33
2019-01-05T19:03:08.616Z,23.80
2019-01-05T19:05:58.336Z,21.73
2019-01-05T19:09:01.601Z,24.80
2019-01-05T19:11:58.741Z,25.63
2019-01-05T19:14:45.583Z,26.17
2019-01-05T19:17:34.407Z,19.43
2019-01-05T19:20:21.480Z,23.40
2019-01-05T19:23:21.735Z,24.60
2019-01-05T19:25:59.009Z,27.93
2019-01-05T19:29:05.305Z,27.27
2019-01-05T19:31:53.616Z,25.50
2019-01-05T19:34:45.052Z,21.47
2019-01-05T19:37:42.487Z,24.90
2019-01-05T19:40:29.434Z,28.77
2019-01-05T19:43:16.365Z,27.27
2019-01-05T19:46:16.763Z,27.93
2019-01-05T19:49:09.422Z,31.13
2019-01-05T19:51:52.448Z,24.20
2019-01-05T19:54:58.747Z,28.33
2019-01-05T19:57:50.993Z,27.67
2019-01-05T20:00:35.004Z,22.80
2019-01-05T20:03:21.662Z,28.87
2019-01-05T20:06:19.051Z,26.83
2019-01-05T20:09:00.585Z,28.30
2019-01-05T20:11:47.413Z,27.13
2019-01-05T20:14:51.393Z,28.03
2019-01-05T20:17:42.319Z,29.93
2019-01-05T20:20:39.442Z,29.13
2019-01-05T20:23:35.217Z,29.90
2019-01-05T20:26:17.297Z,32.10
2019-01-05T20:29:04.251Z,31.30
2019-01-05T20:31:58.476Z,27.60
2019-01-05T20:34:46.796Z,29.60
2019-01-05T20:37:28.961Z,28.67
2019-01-05T20:40:27.083Z,32.93
2019-01-05T20:43:14.026Z,33.07
2019-01-05T20:46:01.937Z,32.17
2019-01-05T20:49:02.325Z,30.40
2019-01-05T20:51:50.627Z,35.20
2019-01-05T20:54:53.823Z,39.13
2019-01-05T20:57:50.742Z,36.03
2019-01-05T21:00:47.764Z,32.17
2019-01-05T21:03:38.800Z,32.53
2019-01-05T21:06:25.481Z,29.50
2019-01-05T21:09:25.665Z,31.40
2019-01-05T21:12:12.487Z,30.27
2019-01-05T21:14:59.463Z,31.47
2019-01-05T21:17:59.081Z,32.00
2019-01-05T21:20:53.231Z,33.97
2019-01-05T21:23:50.792Z,31.20
2019-01-05T21:26:37.734Z,30.27
2019-01-05T21:29:57.141Z,31.37
2019-01-05T21:32:45.544Z,28.10
2019-01-05T21:35:39.661Z,26.60
2019-01-05T21:38:42.404Z,27.67
2019-01-05T21:41:41.497Z,30.17
2019-01-05T21:44:38.849Z,32.20
2019-01-05T21:47:25.608Z,30.63
2019-01-05T21:50:07.331Z,29.17
2019-01-05T21:53:04.664Z,32.93
2019-01-05T21:56:03.537Z,28.90
2019-01-05T21:59:04.065Z,29.90
2019-01-05T22:02:08.502Z,29.53
2019-01-05T22:05:07.613Z,29.80
2019-01-05T22:07:55.609Z,36.47
2019-01-05T22:10:46.971Z,30.53
2019-01-05T22:13:35.290Z,30.53
2019-01-05T22:16:27.092Z,30.43
2019-01-05T22:19:21.362Z,30.87
2019-01-05T22:22:08.379Z,27.90
2019-01-05T22:25:02.854Z,28.70
2019-01-05T22:28:03.867Z,24.33
2019-01-05T22:30:50.364Z,27.63
2019-01-05T22:33:50.543Z,25.10
2019-01-05T22:36:47.756Z,25.77
2019-01-05T22:39:39.122Z,24.47
2019-01-05T22:42:26.023Z,24.90
2019-01-05T22:45:17.451Z,24.50
2019-01-05T22:48:04.308Z,21.77
2019-01-05T22:50:51.044Z,20.87
2019-01-05T22:53:48.102Z,18.40
2019-01-05T22:56:30.669Z,20.47
2019-01-05T22:59:24.781Z,21.27
2019-01-05T23:02:11.577Z,18.10
2019-01-05T23:05:07.294Z,23.47
2019-01-05T23:08:07.436Z,20.63
2019-01-05T23:11:07.912Z,22.57
2019-01-05T23:13:54.858Z,23.83
2019-01-05T23:16:41.920Z,23.97
2019-01-05T23:19:45.220Z,20.60
2019-01-05T23:22:33.190Z,18.87
2019-01-05T23:25:16.967Z,18.57
2019-01-05T23:28:08.020Z,23.17
2019-01-05T23:31:02.603Z,22.77
2019-01-05T23:33:49.476Z,17.97
2019-01-05T23:36:49.864Z,18.27
2019-01-05T23:39:38.160Z,17.33
2019-01-05T23:42:29.300Z,19.23
2019-01-05T23:45:32.774Z,20.93
2019-01-05T23:48:20.076Z,16.87
2019-01-05T23:51:06.810Z,19.00
2019-01-05T23:53:53.706Z,18.80
2019-01-05T23:56:42.003Z,15.47
2019-01-05T23:59:42.279Z,15.90
